createdAt,value
2022-12-12T00:02:44.974Z,-3.7
2022-12-12T00:05:39.398Z,-3.6
2022-12-12T00:08:39.381Z,-3.6
2022-12-12T00:11:39.381Z,-3.6
2022-12-12T00:14:39.417Z,-3.5
2022-12-12T00:17:39.391Z,-3.4
2022-12-12T00:20:39.394Z,-3.4
2022-12-12T00:23:39.426Z,-3.3
2022-12-12T00:26:39.403Z,-3.3
2022-12-12T00:29:39.418Z,-3.3
2022-12-12T00:32:39.412Z,-3.2
2022-12-12T00:35:39.414Z,-3.2
2022-12-12T00:38:39.417Z,-3.1
2022-12-12T00:41:39.445Z,-3.1
2022-12-12T00:44:39.432Z,-3.1
2022-12-12T00:47:39.427Z,-3
2022-12-12T00:50:39.434Z,-3
2022-12-12T00:53:39.437Z,-3
2022-12-12T00:56:39.444Z,-3
2022-12-12T00:59:39.495Z,-2.9
2022-12-12T01:02:39.474Z,-2.9
2022-12-12T01:05:39.450Z,-2.9
2022-12-12T01:08:39.458Z,-2.9
2022-12-12T01:11:39.460Z,-2.9
2022-12-12T01:14:39.477Z,-3
2022-12-12T01:17:39.496Z,-3
2022-12-12T01:20:39.474Z,-3.1
2022-12-12T01:23:39.472Z,-3.2
2022-12-12T01:26:39.478Z,-3.3
2022-12-12T01:29:39.505Z,-3.3
2022-12-12T01:32:39.490Z,-3.4
2022-12-12T01:35:39.514Z,-3.4
2022-12-12T01:38:39.503Z,-3.5
2022-12-12T01:41:39.505Z,-3.6
2022-12-12T01:44:39.520Z,-3.6
2022-12-12T01:47:39.511Z,-3.7
2022-12-12T01:50:39.513Z,-3.8
2022-12-12T01:53:39.540Z,-3.9
2022-12-12T01:56:39.522Z,-3.9
2022-12-12T01:59:39.551Z,-4
2022-12-12T02:02:39.533Z,-4
2022-12-12T02:05:39.535Z,-4
2022-12-12T02:08:39.538Z,-4.1
2022-12-12T02:11:39.585Z,-4.1
2022-12-12T02:14:39.559Z,-4.1
2022-12-12T02:17:39.551Z,-4.1
2022-12-12T02:20:39.550Z,-4.1
2022-12-12T02:23:39.556Z,-4.1
2022-12-12T02:26:39.562Z,-4.2
2022-12-12T02:29:39.601Z,-4.2
2022-12-12T02:32:39.569Z,-4.3
2022-12-12T02:35:39.567Z,-4.4
2022-12-12T02:38:39.570Z,-4.4
2022-12-12T02:41:39.568Z,-4.5
2022-12-12T02:44:39.596Z,-4.6
2022-12-12T02:47:39.611Z,-4.6
2022-12-12T02:50:39.582Z,-4.7
2022-12-12T02:53:39.587Z,-4.8
2022-12-12T02:56:39.596Z,-4.8
2022-12-12T02:59:39.618Z,-4.8
2022-12-12T03:02:39.607Z,-4.8
2022-12-12T03:05:39.635Z,-4.8
2022-12-12T03:08:39.625Z,-4.9
2022-12-12T03:11:39.641Z,-4.9
2022-12-12T03:14:39.662Z,-4.8
2022-12-12T03:17:39.656Z,-4.7
2022-12-12T03:20:39.667Z,-4.7
2022-12-12T03:23:39.699Z,-4.6
2022-12-12T03:26:39.680Z,-4.6
2022-12-12T03:29:39.702Z,-4.5
2022-12-12T03:32:39.700Z,-4.5
2022-12-12T03:35:39.707Z,-4.4
2022-12-12T03:38:39.712Z,-4.3
2022-12-12T03:41:39.769Z,-4.2
2022-12-12T03:44:41.572Z,-4.2
2022-12-12T03:47:39.741Z,-4.1
2022-12-12T03:50:39.747Z,-4.1
2022-12-12T03:53:39.754Z,-4
2022-12-12T03:56:39.758Z,-4
2022-12-12T03:59:39.798Z,-3.9
2022-12-12T04:02:39.787Z,-3.9
2022-12-12T04:05:39.762Z,-4
2022-12-12T04:08:39.768Z,-4
2022-12-12T04:11:39.775Z,-4
2022-12-12T04:14:39.798Z,-4.1
2022-12-12T04:17:39.806Z,-4.2
2022-12-12T04:20:39.784Z,-4.2
2022-12-12T04:23:39.793Z,-4.2
2022-12-12T04:26:39.800Z,-4.3
2022-12-12T04:29:39.825Z,-4.3
2022-12-12T04:32:39.796Z,-4.3
2022-12-12T04:35:39.832Z,-4.4
2022-12-12T04:38:39.808Z,-4.5
2022-12-12T04:41:39.809Z,-4.5
2022-12-12T04:44:39.823Z,-4.6
2022-12-12T04:47:39.822Z,-4.7
2022-12-12T04:50:39.828Z,-4.8
2022-12-12T04:53:39.929Z,-4.9
2022-12-12T04:56:39.834Z,-4.9
2022-12-12T04:59:39.853Z,-4.9
2022-12-12T05:02:39.884Z,-5
2022-12-12T05:05:39.843Z,-5
2022-12-12T05:08:39.852Z,-5
2022-12-12T05:11:39.884Z,-5.1
2022-12-12T05:14:39.865Z,-5.1
2022-12-12T05:17:39.861Z,-5.1
2022-12-12T05:20:39.863Z,-5.2
2022-12-12T05:23:39.872Z,-5.2
2022-12-12T05:26:39.866Z,-5.3
2022-12-12T05:29:39.916Z,-5.3
2022-12-12T05:32:39.892Z,-5.4
2022-12-12T05:35:39.897Z,-5.4
2022-12-12T05:38:39.904Z,-5.5
2022-12-12T05:41:39.911Z,-5.5
2022-12-12T05:44:39.923Z,-5.6
2022-12-12T05:47:39.939Z,-5.5
2022-12-12T05:50:39.923Z,-5.5
2022-12-12T05:53:43.025Z,-5.5
2022-12-12T05:56:39.934Z,-5.5
2022-12-12T05:59:39.936Z,-5.4
2022-12-12T06:02:39.946Z,-5.4
2022-12-12T06:05:39.951Z,-5.4
2022-12-12T06:08:40.015Z,-5.4
2022-12-12T06:11:39.939Z,-5.4
2022-12-12T06:14:39.956Z,-5.5
2022-12-12T06:17:39.951Z,-5.5
2022-12-12T06:20:39.956Z,-5.6
2022-12-12T06:23:40.031Z,-5.6
2022-12-12T06:26:39.960Z,-5.6
2022-12-12T06:29:39.977Z,-5.6
2022-12-12T06:32:39.979Z,-5.5
2022-12-12T06:35:39.985Z,-5.5
2022-12-12T06:38:39.987Z,-5.5
2022-12-12T06:41:40.020Z,-5.4
2022-12-12T06:44:39.998Z,-5.3
2022-12-12T06:47:39.992Z,-5.2
2022-12-12T06:50:39.995Z,-5.1
2022-12-12T06:53:40.003Z,-5
2022-12-12T06:56:43.297Z,-4.9
2022-12-12T06:59:40.111Z,-4.8
2022-12-12T07:02:40.048Z,-4.7
2022-12-12T07:05:40.031Z,-4.6
2022-12-12T07:08:40.042Z,-4.6
2022-12-12T07:11:40.034Z,-4.5
2022-12-12T07:14:40.044Z,-4.5
2022-12-12T07:17:40.102Z,-4.4
2022-12-12T07:20:40.045Z,-4.4
2022-12-12T07:23:40.063Z,-4.3
2022-12-12T07:26:40.062Z,-4.3
2022-12-12T07:29:40.068Z,-4.2
2022-12-12T07:32:40.076Z,-4.2
2022-12-12T07:35:40.155Z,-4.2
2022-12-12T07:38:40.083Z,-4.1
2022-12-12T07:41:40.793Z,-4.1
2022-12-12T07:44:40.084Z,-4
2022-12-12T07:47:40.086Z,-4
2022-12-12T07:50:40.100Z,-4
2022-12-12T07:53:40.219Z,-4.1
2022-12-12T07:56:40.102Z,-4.1
2022-12-12T07:59:40.106Z,-4.1
2022-12-12T08:02:40.107Z,-4.1
2022-12-12T08:05:40.116Z,-4.1
2022-12-12T08:08:40.122Z,-4.1
2022-12-12T08:11:44.719Z,-4
2022-12-12T08:14:40.123Z,-4
2022-12-12T08:17:40.132Z,-3.9
2022-12-12T08:20:40.137Z,-3.9
2022-12-12T08:23:40.154Z,-3.9
2022-12-12T08:26:40.142Z,-3.9
2022-12-12T08:29:40.172Z,-3.9
2022-12-12T08:32:40.156Z,-3.9
2022-12-12T08:35:40.155Z,-3.9
2022-12-12T08:38:40.162Z,-3.9
2022-12-12T08:41:40.165Z,-4
2022-12-12T08:44:40.167Z,-4
2022-12-12T08:47:40.195Z,-4.1
2022-12-12T08:50:40.170Z,-4.1
2022-12-12T08:53:40.173Z,-4
2022-12-12T08:56:40.180Z,-4.1
2022-12-12T08:59:40.187Z,-4
2022-12-12T09:02:40.321Z,-4
2022-12-12T09:05:40.220Z,-3.9
2022-12-12T09:08:40.199Z,-3.8
2022-12-12T09:11:40.206Z,-3.7
2022-12-12T09:14:40.211Z,-3.6
2022-12-12T09:17:40.214Z,-3.6
2022-12-12T09:20:40.216Z,-3.4
2022-12-12T09:23:40.250Z,-3.4
2022-12-12T09:26:40.230Z,-3.4
2022-12-12T09:29:40.239Z,-3.3
2022-12-12T09:32:40.245Z,-3.2
2022-12-12T09:35:40.243Z,-3.1
2022-12-12T09:38:40.245Z,-3
2022-12-12T09:41:40.277Z,-2.9
2022-12-12T09:44:40.262Z,-2.8
2022-12-12T09:47:40.271Z,-2.8
2022-12-12T09:50:40.265Z,-2.7
2022-12-12T09:53:40.268Z,-2.7
2022-12-12T09:56:40.269Z,-2.6
2022-12-12T09:59:40.303Z,-2.6
2022-12-12T10:02:41.302Z,-2.5
2022-12-12T10:05:40.286Z,-2.5
2022-12-12T10:08:40.286Z,-2.4
2022-12-12T10:11:40.298Z,-2.3
2022-12-12T10:14:40.299Z,-2.2
2022-12-12T10:17:40.335Z,-2.2
2022-12-12T10:20:40.318Z,-2.2
2022-12-12T10:23:40.320Z,-2.1
2022-12-12T10:26:40.323Z,-1.9
2022-12-12T10:29:41.610Z,-1.9
2022-12-12T10:32:40.324Z,-1.7
2022-12-12T10:35:40.362Z,-1.6
2022-12-12T10:38:40.341Z,-1.6
2022-12-12T10:41:40.331Z,-1.5
2022-12-12T10:44:44.235Z,-1.4
2022-12-12T10:47:40.345Z,-1.3
2022-12-12T10:50:40.353Z,-1.2
2022-12-12T10:53:40.382Z,-1.1
2022-12-12T10:56:40.360Z,-1.1
2022-12-12T10:59:40.366Z,-1.1
2022-12-12T11:02:40.479Z,-1
2022-12-12T11:05:40.379Z,-0.9
2022-12-12T11:08:40.385Z,-0.9
2022-12-12T11:11:40.417Z,-1
2022-12-12T11:14:40.390Z,-0.9
2022-12-12T11:17:40.396Z,-0.9
2022-12-12T11:20:40.401Z,-0.9
2022-12-12T11:23:40.407Z,-0.8
2022-12-12T11:26:40.413Z,-0.8
2022-12-12T11:29:40.433Z,-0.8
2022-12-12T11:32:40.417Z,-0.9
2022-12-12T11:35:45.719Z,-0.9
2022-12-12T11:38:40.427Z,-0.9
2022-12-12T11:41:40.429Z,-0.9
2022-12-12T11:44:40.430Z,-0.9
2022-12-12T11:47:40.459Z,-0.9
2022-12-12T11:50:40.443Z,-0.9
2022-12-12T11:53:40.599Z,-0.9
2022-12-12T11:56:40.452Z,-0.9
2022-12-12T11:59:40.450Z,-0.9
2022-12-12T12:02:40.458Z,-0.9
2022-12-12T12:05:40.491Z,-0.9
2022-12-12T12:08:40.467Z,-0.9
2022-12-12T12:11:40.476Z,-0.9
2022-12-12T12:14:40.477Z,-0.9
2022-12-12T12:17:40.486Z,-0.9
2022-12-12T12:20:40.488Z,-1
2022-12-12T12:23:41.943Z,-1
2022-12-12T12:26:40.490Z,-1
2022-12-12T12:29:40.496Z,-1
2022-12-12T12:32:40.499Z,-1
2022-12-12T12:35:40.508Z,-1
2022-12-12T12:38:40.507Z,-1
2022-12-12T12:41:40.552Z,-0.9
2022-12-12T12:44:40.528Z,-0.9
2022-12-12T12:47:40.531Z,-0.9
2022-12-12T12:50:40.539Z,-0.9
2022-12-12T12:53:40.553Z,-0.9
2022-12-12T12:56:43.668Z,-0.8
2022-12-12T12:59:40.581Z,-0.8
2022-12-12T13:02:40.584Z,-0.7
2022-12-12T13:05:40.560Z,-0.7
2022-12-12T13:08:40.560Z,-0.7
2022-12-12T13:11:40.562Z,-0.6
2022-12-12T13:14:40.565Z,-0.7
2022-12-12T13:17:40.632Z,-0.9
2022-12-12T13:20:40.577Z,-1
2022-12-12T13:23:40.580Z,-1.2
2022-12-12T13:26:40.586Z,-1.3
2022-12-12T13:29:40.589Z,-1.4
2022-12-12T13:32:40.593Z,-1.5
2022-12-12T13:35:40.618Z,-1.5
2022-12-12T13:38:40.597Z,-1.5
2022-12-12T13:41:40.606Z,-1.5
2022-12-12T13:44:40.608Z,-1.5
2022-12-12T13:47:40.634Z,-1.6
2022-12-12T13:50:40.619Z,-1.7
2022-12-12T13:53:40.661Z,-1.8
2022-12-12T13:56:40.632Z,-1.9
2022-12-12T13:59:40.632Z,-1.9
2022-12-12T14:02:40.681Z,-2
2022-12-12T14:05:40.643Z,-2.1
2022-12-12T14:08:40.647Z,-2.1
2022-12-12T14:11:40.677Z,-2.2
2022-12-12T14:14:40.654Z,-2.2
2022-12-12T14:17:42.919Z,-2.2
2022-12-12T14:20:40.669Z,-2.3
2022-12-12T14:23:42.213Z,-2.4
2022-12-12T14:26:40.677Z,-2.6
2022-12-12T14:29:40.717Z,-2.7
2022-12-12T14:32:40.689Z,-2.8
2022-12-12T14:35:40.688Z,-2.9
2022-12-12T14:38:40.693Z,-3
2022-12-12T14:41:40.696Z,-3.1
2022-12-12T14:44:40.702Z,-3.2
2022-12-12T14:47:40.727Z,-3.2
2022-12-12T14:50:40.709Z,-3.4
2022-12-12T14:53:40.711Z,-3.4
2022-12-12T14:56:40.718Z,-3.6
2022-12-12T14:59:40.818Z,-3.7
2022-12-12T15:02:40.848Z,-3.8
2022-12-12T15:05:40.755Z,-4
2022-12-12T15:08:40.729Z,-4.1
2022-12-12T15:11:40.738Z,-4.2
2022-12-12T15:14:40.735Z,-4.3
2022-12-12T15:17:40.741Z,-4.4
2022-12-12T15:20:40.741Z,-4.4
2022-12-12T15:23:40.776Z,-4.5
2022-12-12T15:26:40.749Z,-4.5
2022-12-12T15:29:40.752Z,-4.6
2022-12-12T15:32:40.762Z,-4.6
2022-12-12T15:35:40.763Z,-4.6
2022-12-12T15:38:40.765Z,-4.6
2022-12-12T15:41:40.889Z,-4.6
2022-12-12T15:44:40.774Z,-4.7
2022-12-12T15:47:40.776Z,-4.7
2022-12-12T15:50:40.783Z,-4.9
2022-12-12T15:53:40.785Z,-5
2022-12-12T15:56:40.792Z,-5.1
2022-12-12T15:59:40.981Z,-5.2
2022-12-12T16:02:40.801Z,-5.4
2022-12-12T16:05:40.898Z,-5.5
2022-12-12T16:08:40.978Z,-5.5
2022-12-12T16:11:40.905Z,-5.6
2022-12-12T16:14:42.351Z,-5.6
2022-12-12T16:17:40.843Z,-5.6
2022-12-12T16:20:40.825Z,-5.6
2022-12-12T16:23:40.829Z,-5.5
2022-12-12T16:26:40.832Z,-5.5
2022-12-12T16:29:40.831Z,-5.5
2022-12-12T16:32:40.842Z,-5.6
2022-12-12T16:35:40.863Z,-5.6
2022-12-12T16:38:40.838Z,-5.6
2022-12-12T16:41:40.838Z,-5.7
2022-12-12T16:44:40.843Z,-5.7
2022-12-12T16:47:40.839Z,-5.7
2022-12-12T16:50:40.843Z,-5.8
2022-12-12T16:53:40.902Z,-5.8
2022-12-12T16:56:40.853Z,-5.8
2022-12-12T16:59:40.867Z,-5.9
2022-12-12T17:02:40.879Z,-5.9
2022-12-12T17:05:40.899Z,-5.9
2022-12-12T17:08:40.914Z,-6
2022-12-12T17:11:40.958Z,-6
2022-12-12T17:14:40.948Z,-6.1
2022-12-12T17:17:40.970Z,-6.1
2022-12-12T17:20:40.972Z,-6.2
2022-12-12T17:23:40.974Z,-6.3
2022-12-12T17:26:40.987Z,-6.4
2022-12-12T17:29:41.011Z,-6.4
2022-12-12T17:32:40.990Z,-6.5
2022-12-12T17:35:40.989Z,-6.6
2022-12-12T17:38:40.996Z,-6.7
2022-12-12T17:41:41.004Z,-6.8
2022-12-12T17:44:41.011Z,-6.7
2022-12-12T17:47:41.037Z,-6.7
2022-12-12T17:50:41.882Z,-6.8
2022-12-12T17:53:41.019Z,-6.8
2022-12-12T17:56:41.021Z,-6.8
2022-12-12T17:59:41.023Z,-6.9
2022-12-12T18:02:41.032Z,-6.9
2022-12-12T18:05:41.060Z,-7
2022-12-12T18:08:41.039Z,-7
2022-12-12T18:11:41.043Z,-7.1
2022-12-12T18:14:41.047Z,-7.1
2022-12-12T18:17:41.085Z,-7
2022-12-12T18:20:41.057Z,-6.9
2022-12-12T18:23:41.087Z,-6.9
2022-12-12T18:26:41.065Z,-7
2022-12-12T18:29:41.075Z,-7.1
2022-12-12T18:32:41.075Z,-7.3
2022-12-12T18:35:41.083Z,-7.4
2022-12-12T18:38:45.849Z,-7.4
2022-12-12T18:41:41.116Z,-7.4
2022-12-12T18:44:41.097Z,-7.5
2022-12-12T18:47:41.104Z,-7.5
2022-12-12T18:50:41.107Z,-7.5
2022-12-12T18:53:41.112Z,-7.5
2022-12-12T18:56:41.116Z,-7.5
2022-12-12T18:59:41.151Z,-7.5
2022-12-12T19:02:41.179Z,-7.4
2022-12-12T19:05:41.138Z,-7.4
2022-12-12T19:08:41.145Z,-7.4
2022-12-12T19:11:41.147Z,-7.4
2022-12-12T19:15:00.138Z,-7.5
2022-12-12T19:17:41.187Z,-7.5
2022-12-12T19:20:41.161Z,-7.5
2022-12-12T19:23:41.166Z,-7.5
2022-12-12T19:26:41.170Z,-7.4
2022-12-12T19:29:41.172Z,-7.4
2022-12-12T19:32:41.181Z,-7.4
2022-12-12T19:35:41.206Z,-7.3
2022-12-12T19:38:41.191Z,-7.2
2022-12-12T19:41:41.198Z,-7
2022-12-12T19:44:43.456Z,-6.8
2022-12-12T19:47:41.207Z,-6.7
2022-12-12T19:50:41.208Z,-6.7
2022-12-12T19:53:41.233Z,-6.8
2022-12-12T19:56:41.222Z,-7.1
2022-12-12T19:59:41.219Z,-7.3
2022-12-12T20:02:41.306Z,-7.4
2022-12-12T20:05:41.224Z,-7.6
2022-12-12T20:08:41.225Z,-7.7
2022-12-12T20:11:41.254Z,-7.6
2022-12-12T20:14:41.234Z,-7.6
2022-12-12T20:17:41.240Z,-7.7
2022-12-12T20:20:41.243Z,-7.7
2022-12-12T20:23:46.867Z,-7.8
2022-12-12T20:26:41.246Z,-7.6
2022-12-12T20:29:41.277Z,-7.6
2022-12-12T20:32:41.260Z,-7.6
2022-12-12T20:35:41.262Z,-7.6
2022-12-12T20:38:41.267Z,-7.4
2022-12-12T20:41:41.271Z,-7.4
2022-12-12T20:44:41.279Z,-7.2
2022-12-12T20:47:41.305Z,-6.9
2022-12-12T20:50:41.286Z,-6.7
2022-12-12T20:53:41.294Z,-6.6
2022-12-12T20:56:45.993Z,-6.5
2022-12-12T20:59:41.296Z,-6.4
2022-12-12T21:02:41.443Z,-6.3
2022-12-12T21:05:41.337Z,-6.2
2022-12-12T21:08:41.390Z,-6.3
2022-12-12T21:11:41.322Z,-6.3
2022-12-12T21:14:41.329Z,-6.4
2022-12-12T21:17:41.326Z,-6.5
2022-12-12T21:20:41.337Z,-6.6
2022-12-12T21:23:41.362Z,-6.7
2022-12-12T21:26:41.338Z,-6.9
2022-12-12T21:29:41.345Z,-7
2022-12-12T21:32:41.350Z,-7.2
2022-12-12T21:35:41.360Z,-7.3
2022-12-12T21:38:41.357Z,-7.3
2022-12-12T21:41:41.397Z,-7.3
2022-12-12T21:44:45.601Z,-7.4
2022-12-12T21:47:41.375Z,-7.5
2022-12-12T21:50:41.382Z,-7.6
2022-12-12T21:53:41.385Z,-7.8
2022-12-12T21:56:41.387Z,-7.8
2022-12-12T21:59:41.421Z,-8
2022-12-12T22:02:43.720Z,-8.1
2022-12-12T22:05:41.403Z,-8.2
2022-12-12T22:08:41.416Z,-8.3
2022-12-12T22:11:47.544Z,-8.2
2022-12-12T22:14:41.421Z,-8.2
2022-12-12T22:17:41.453Z,-8.1
2022-12-12T22:20:41.432Z,-8.1
2022-12-12T22:23:41.436Z,-8.2
2022-12-12T22:26:41.430Z,-8.3
2022-12-12T22:29:41.434Z,-8.4
2022-12-12T22:32:41.447Z,-8.4
2022-12-12T22:35:41.474Z,-8.5
2022-12-12T22:38:41.457Z,-8.5
2022-12-12T22:41:41.459Z,-8.5
2022-12-12T22:44:41.461Z,-8.5
2022-12-12T22:47:41.471Z,-8.5
2022-12-12T22:50:41.471Z,-8.4
2022-12-12T22:53:44.260Z,-8.5
2022-12-12T22:56:41.491Z,-8.5
2022-12-12T22:59:41.487Z,-8.5
2022-12-12T23:02:41.487Z,-8.6
2022-12-12T23:05:41.542Z,-8.7
2022-12-12T23:08:41.495Z,-8.8
2022-12-12T23:11:41.536Z,-8.8
2022-12-12T23:14:41.507Z,-8.8
2022-12-12T23:17:41.515Z,-8.8
2022-12-12T23:20:41.516Z,-8.8
2022-12-12T23:23:41.521Z,-8.8
2022-12-12T23:26:41.521Z,-8.9
2022-12-12T23:29:41.555Z,-8.9
2022-12-12T23:32:41.536Z,-9
2022-12-12T23:35:41.535Z,-9
2022-12-12T23:38:41.539Z,-9
2022-12-12T23:41:41.537Z,-9.1
2022-12-12T23:44:41.550Z,-9.2
2022-12-12T23:47:41.585Z,-9.2
2022-12-12T23:50:41.557Z,-9.1
2022-12-12T23:53:41.563Z,-9
2022-12-12T23:56:41.566Z,-8.9
2022-12-12T23:59:41.574Z,-8.8
